• Join FlightAware (Why Join?)
  • Login
  • US Flag 
02:35AM EDT


 

Airport Tracker/Info


-or-


 

Live Flight TrackerFlight Track Log ✈ DAL268 ✈ 15-Jul-2013 ✈ KJFK - LLBG / TLV

Flight Track Log - Related Links

Times and Time Zones

All times are in EDT time to prevent confusion due to time zone crossing. See the DAL268 flight status page for this flight to view local times or setup timezone preferences in your user account.

Time Position Orientation Groundspeed Altitude Reporting Facility
EDT Latitude Longitude Course Direction KTS MPH feet Rate Location/Type
11:47PM 40.6240 -73.7810 261° West 9 10  Level FlightAware
11:48PM 40.6230 -73.7810 180° South 9 10  Level FlightAware
11:51PM 40.8831 -73.5502 37° Northeast  Level FlightAware Approximate
11:51PM 40.6210 -73.7800 30° Northeast 10 12  Level FlightAware
11:52PM 40.9906 -73.4481 30° Northeast  Level FlightAware Approximate
11:52PM 40.6200 -73.7800 180° South 10 12  Level FlightAware
11:53PM 40.6200 -73.7790 90° East 9 10  Level FlightAware
11:55PM 40.6190 -73.7790 180° South 10 12  Level FlightAware
11:56PM 40.6180 -73.7790 180° South 13 15  Level FlightAware
11:57PM 40.6170 -73.7790 180° South 14 16  Level FlightAware
11:58PM 40.6160 -73.7790 180° South 14 16  Level FlightAware
11:58PM 40.6150 -73.7790 180° South 13 15  Level FlightAware
12:00AM 40.6140 -73.7790 180° South 9 10  Level FlightAware
12:02AM 40.6130 -73.7790 180° South 9 10  Level FlightAware
12:02AM 40.6130 -73.7800 270° West 9 10 60 Level FlightAware
12:03AM 40.6120 -73.7790 143° Southeast 17 20 60 Level FlightAware
12:04AM 40.6100 -73.7800 201° Southwest 28 32 60 Level FlightAware
12:05AM 40.6080 -73.7780 143° Southeast 24 28 60 Level FlightAware
12:06AM 40.6050 -73.7740 135° Southeast 31 36 120 Level FlightAware
12:07AM 40.6030 -73.7740 180° South 32 37 180 Level FlightAware
12:08AM 40.6040 -73.7800 282° West 76 87 180 Level FlightAware
12:08AM 40.6100 -73.7920 303° West 140 161 420 Level FlightAware
12:09AM 40.6280 -73.8370 298° West 201 231 500 720 Climbing FlightAware
12:09AM 40.6300 -73.8500 281° West 206 237 700 1,380 Climbing FlightAware
12:10AM 40.6120 -73.8820 233° Southwest 223 257 1,500 1,380 Climbing FlightAware
12:10AM 40.5980 -73.8880 198° South 236 272 1,800 1,020 Climbing FlightAware
12:10AM 40.5930 -73.8880 180° South 241 277 1,800 840 Level FlightAware
12:10AM 40.5670 -73.8870 178° South 262 302 2,200 840 Climbing FlightAware
12:11AM 40.5370 -73.8770 166° South 282 325 2,600 1,440 Climbing FlightAware
12:11AM 40.5140 -73.8440 133° Southeast 295 339 3,400 2,820 Climbing FlightAware
12:11AM 40.5084 -73.8336 125° Southeast 298 343 3,700 2,700 Climbing FlightAware ADS-B
12:11AM 40.5050 -73.8275 126° Southeast 298 343 3,900 3,000 Climbing FlightAware ADS-B
12:11AM 40.5023 -73.8217 121° Southeast 299 344 4,100 2,100 Climbing FlightAware ADS-B
12:12AM 40.4968 -73.7980 107° East 295 339 4,500 1,620 Climbing FlightAware ADS-B
12:12AM 40.4965 -73.7902 93° East 295 339 4,600 1,080 Climbing FlightAware ADS-B
12:12AM 40.4974 -73.7794 84° East 293 337 4,700 1,200 Climbing FlightAware ADS-B
12:12AM 40.4988 -73.7725 75° East 291 335 4,800 600 Climbing FlightAware ADS-B
12:12AM 40.5019 -73.7629 67° East 289 333 4,800  Level FlightAware ADS-B
12:12AM 40.5038 -73.7583 61° Northeast 287 330 4,800 720 Level FlightAware ADS-B
12:12AM 40.5080 -73.7514 51° Northeast 285 328 4,900 660 Climbing FlightAware ADS-B
12:12AM 40.5117 -73.7465 45° Northeast 285 328 4,900 540 Level FlightAware ADS-B
12:12AM 40.5186 -73.7385 41° Northeast 287 330 5,000 1,920 Climbing FlightAware ADS-B
12:13AM 40.5375 -73.7194 38° Northeast 290 334 5,700 2,400 Climbing FlightAware ADS-B
12:13AM 40.5474 -73.7099 36° Northeast 291 335 6,100 2,700 Climbing FlightAware ADS-B
12:13AM 40.5657 -73.6954 31° Northeast 293 337 6,800 2,580 Climbing FlightAware ADS-B
12:13AM 40.5835 -73.6822 29° Northeast 297 342 7,400 2,340 Climbing FlightAware ADS-B
12:14AM 40.6045 -73.6675 28° Northeast 299 344 8,100 2,520 Climbing FlightAware ADS-B
12:14AM 40.6237 -73.6543 28° Northeast 301 346 8,800 2,520 Climbing FlightAware ADS-B
12:14AM 40.6462 -73.6388 28° Northeast 304 350 9,500 2,040 Climbing FlightAware ADS-B
12:15AM 40.6864 -73.6113 27° Northeast 321 369 10,500 1,380 Climbing FlightAware ADS-B
12:15AM 40.7310 -73.5804 28° Northeast 351 404 11,000 1,080 Climbing FlightAware ADS-B
12:16AM 40.7993 -73.5327 28° Northeast 390 449 11,900 1,080 Climbing FlightAware ADS-B
12:17AM 40.8684 -73.4844 28° Northeast 398 458 12,600 1,740 Climbing FlightAware ADS-B
12:17AM 40.9256 -73.4446 28° Northeast 419 482 14,100 2,160 Climbing FlightAware ADS-B
12:18AM 40.9919 -73.3982 28° Northeast 433 498 15,200 1,800 Climbing FlightAware ADS-B
12:18AM 41.0484 -73.3585 28° Northeast 439 505 16,200 1,920 Climbing FlightAware ADS-B
12:19AM 41.1040 -73.3193 28° Northeast 440 506 17,200 1,860 Climbing FlightAware ADS-B
12:19AM 41.1524 -73.2853 28° Northeast 450 518 18,000 1,800 Climbing FlightAware ADS-B
12:19AM 41.1634 -73.2767 30° Northeast 451 519 18,200 1,500 Climbing FlightAware ADS-B
12:20AM 41.2440 -73.1740 44° Northeast 466 536 19,500 1,500 Climbing FlightAware
12:21AM 41.2990 -73.0820 51° Northeast 472 543 20,600 1,500 Climbing FlightAware
12:22AM 41.3530 -72.9900 52° Northeast 478 550 21,600 1,440 Climbing FlightAware
12:22AM 41.4160 -72.8840 52° Northeast 485 558 22,700 1,320 Climbing FlightAware
12:23AM 41.4720 -72.7870 52° Northeast 493 567 23,500 1,320 Climbing FlightAware
12:24AM 41.5230 -72.7020 51° Northeast 495 570 24,400 480 Climbing FlightAware
12:25AM 41.6030 -72.5740 50° Northeast 495 570 24,400  Level FlightAware
12:25AM 41.6480 -72.5020 50° Northeast 495 570 24,400  Level FlightAware
12:26AM 41.6930 -72.4300 50° Northeast 495 570 24,400  Level FlightAware
12:27AM 41.7530 -72.3340 50° Northeast 495 570 24,400 2,700 Level FlightAware
12:27AM 41.8730 -72.2480 28° Northeast 28,000 6,300 Climbing FlightAware
12:27AM 41.8920 -72.2230 44° Northeast 519 597 28,300 1,260 Climbing FlightAware
12:28AM 41.9690 -72.1240 44° Northeast 518 596 29,200 1,260 Climbing FlightAware
12:29AM 42.0410 -72.0290 44° Northeast 516 594 30,100 1,200 Climbing FlightAware
12:29AM 42.1220 -71.9240 44° Northeast 514 592 31,000 600 Climbing FlightAware
12:30AM 42.1900 -71.8350 44° Northeast 512 589 31,000  Level FlightAware
12:31AM 42.2580 -71.7460 44° Northeast 505 581 31,000  Level FlightAware
12:32AM 42.3360 -71.6440 44° Northeast 505 581 31,000  Level FlightAware
12:32AM 42.4030 -71.5550 44° Northeast 512 589 31,000  Level FlightAware
12:33AM 42.4730 -71.4640 44° Northeast 513 590 31,000  Level FlightAware
12:34AM 42.5480 -71.3670 44° Northeast 514 592 31,000  Level FlightAware
12:34AM 42.6160 -71.2770 44° Northeast 514 592 31,000  Level FlightAware
12:35AM 42.6860 -71.1850 44° Northeast 515 593 31,000  Level FlightAware
12:36AM 42.7660 -71.0780 44° Northeast 517 595 31,000  Level FlightAware
12:36AM 42.8300 -70.9920 45° Northeast 518 596 31,000  Level FlightAware
12:37AM 42.8990 -70.8990 45° Northeast 519 597 31,000  Level FlightAware
12:38AM 42.9810 -70.7880 45° Northeast 519 597 31,000  Level FlightAware
12:39AM 43.0520 -70.6920 45° Northeast 519 597 31,000  Level FlightAware
12:39AM 43.1250 -70.5930 45° Northeast 519 597 31,000  Level FlightAware
12:40AM 43.1950 -70.4990 44° Northeast 519 597 31,000  Level FlightAware
12:41AM 43.2670 -70.4010 45° Northeast 520 598 31,000  Level FlightAware
12:41AM 43.3380 -70.3040 45° Northeast 521 600 31,000  Level FlightAware
12:42AM 43.4110 -70.2040 45° Northeast 521 600 31,000  Level FlightAware
12:43AM 43.4800 -70.1060 46° Northeast 521 600 31,000  Level FlightAware
12:44AM 43.5630 -69.9900 45° Northeast 521 600 31,000  Level FlightAware
12:44AM 43.6370 -69.8860 45° Northeast 521 600 31,000  Level FlightAware
12:45AM 43.7180 -69.7720 45° Northeast 521 600 31,000  Level FlightAware
12:46AM 43.7890 -69.6710 46° Northeast 31,000  Level FlightAware
12:46AM 43.8570 -69.5750 45° Northeast 517 595 31,000  Level FlightAware
12:47AM 43.9180 -69.4880 46° Northeast 517 595 31,000  Level FlightAware
12:48AM 44.0000 -69.3730 45° Northeast 519 597 31,000  Level FlightAware
12:49AM 44.0730 -69.2680 46° Northeast 519 597 31,000  Level FlightAware
12:49AM 44.1400 -69.1710 46° Northeast 519 597 31,000  Level FlightAware
12:50AM 44.2010 -69.0840 46° Northeast 526 605 31,000  Level FlightAware
12:51AM 44.2850 -68.9620 46° Northeast 526 605 31,000  Level FlightAware
12:51AM 44.3550 -68.8610 46° Northeast 526 605 31,000  Level FlightAware
12:52AM 44.4300 -68.7530 46° Northeast 526 605 31,000  Level FlightAware
12:53AM 44.4960 -68.6580 46° Northeast 527 606 31,000  Level FlightAware
12:53AM 44.5720 -68.5460 46° Northeast 527 606 31,000  Level FlightAware
12:54AM 44.6400 -68.4460 46° Northeast 528 608 31,000  Level FlightAware
12:55AM 44.7070 -68.3470 46° Northeast 529 609 31,000  Level FlightAware
12:56AM 44.7810 -68.2370 47° Northeast 530 610 31,000  Level FlightAware
12:56AM 44.8550 -68.1270 46° Northeast 529 609 31,000  Level FlightAware
12:57AM 44.9210 -68.0280 47° Northeast 529 609 31,000  Level FlightAware
12:58AM 44.9950 -67.9170 47° Northeast 529 609 31,000  Level FlightAware
12:58AM 45.0590 -67.8210 47° Northeast 529 609 31,000  Level FlightAware
12:59AM 45.1550 -67.6750 47° Northeast 525 604 31,000  Level FlightAware
01:00AM 45.2310 -67.5600 47° Northeast 525 604 31,000  Level FlightAware
01:01AM 45.2970 -67.4600 47° Northeast 525 604 31,000  Level FlightAware
01:01AM 45.3710 -67.3470 47° Northeast 529 609 31,000  Level FlightAware
01:02AM 45.4310 -67.2540 47° Northeast 528 608 31,000  Level FlightAware
01:03AM 45.5060 -67.1370 48° Northeast 529 609 31,000  Level FlightAware
01:04AM 45.5790 -67.0240 47° Northeast 523 602 31,000  Level FlightAware
01:04AM 45.6460 -66.9190 48° Northeast 530 610 31,000  Level FlightAware
01:05AM 45.7040 -66.8280 48° Northeast 530 610 31,000  Level FlightAware
01:05AM 45.7710 -66.7220 48° Northeast 533 613 31,000  Level FlightAware
01:06AM 45.8360 -66.6200 48° Northeast 533 613 31,000  Level FlightAware
01:07AM 45.9220 -66.4830 48° Northeast 534 615 31,000  Level FlightAware
01:08AM 45.9900 -66.3750 48° Northeast 529 609 31,000  Level FlightAware
01:08AM 46.0500 -66.2790 48° Northeast 530 610 31,000  Level FlightAware
01:09AM 46.1190 -66.1690 48° Northeast 536 617 31,000  Level FlightAware
01:10AM 46.1900 -66.0560 48° Northeast 536 617 31,000  Level FlightAware
01:10AM 46.2400 -65.9750 48° Northeast 536 617 31,000  Level FlightAware
01:11AM 46.3050 -65.8710 48° Northeast 536 617 31,000  Level FlightAware
01:12AM 46.3730 -65.7620 48° Northeast 536 617 31,000  Level FlightAware
01:13AM 46.4420 -65.6500 48° Northeast 536 617 31,000  Level FlightAware
01:13AM 46.4930 -65.5680 48° Northeast 536 617 31,000  Level FlightAware
01:14AM 46.5440 -65.4870 48° Northeast 536 617 31,000  Level FlightAware
01:15AM 46.5940 -65.4040 49° Northeast 536 617 31,000  Level FlightAware
01:15AM 46.6620 -65.2950 48° Northeast 536 617 31,000  Level FlightAware
01:16AM 46.7140 -65.2100 48° Northeast 536 617 31,000  Level FlightAware
01:17AM 46.7820 -65.1010 48° Northeast 536 617 31,000  Level FlightAware
01:17AM 46.8330 -65.0180 48° Northeast 536 617 31,000  Level FlightAware
01:18AM 46.9020 -64.9060 48° Northeast 536 617 31,000  Level FlightAware
01:19AM 46.9530 -64.8230 48° Northeast 536 617 31,000  Level FlightAware
01:19AM 47.1667 -64.4500 48° Northeast 530 610 31,000  Level Moncton Center
01:20AM 47.2667 -64.2667 51° Northeast 530 610 31,000  Level Moncton Center
01:21AM 47.3667 -64.1000 48° Northeast 540 621 31,000  Level Moncton Center
01:22AM 47.4667 -63.9500 45° Northeast 540 621 31,000  Level Moncton Center
01:23AM 47.5667 -63.7500 53° Northeast 540 621 31,000  Level Moncton Center
01:24AM 47.6667 -63.6000 45° Northeast 540 621 31,000  Level Moncton Center
01:25AM 47.7667 -63.4333 48° Northeast 540 621 31,000  Level Moncton Center
01:26AM 47.8667 -63.2500 51° Northeast 540 621 31,000  Level Moncton Center
01:27AM 47.9500 -63.0667 56° Northeast 540 621 31,000  Level Moncton Center
01:28AM 48.0333 -62.9000 53° Northeast 540 621 31,000  Level Moncton Center
01:29AM 48.1333 -62.7333 48° Northeast 540 621 31,000  Level Moncton Center
01:30AM 48.2333 -62.5333 53° Northeast 540 621 31,000  Level Moncton Center
01:31AM 48.3333 -62.3833 45° Northeast 540 621 31,000  Level Moncton Center
01:32AM 48.4333 -62.2000 51° Northeast 550 633 31,000  Level Moncton Center
01:33AM 48.5333 -62.0167 50° Northeast 550 633 31,000  Level Moncton Center
01:34AM 48.6333 -61.8333 50° Northeast 540 621 31,000  Level Moncton Center
01:35AM 48.7167 -61.6500 55° Northeast 560 644 31,000  Level Moncton Center
01:36AM 48.8167 -61.4667 50° Northeast 550 633 31,000  Level Moncton Center
01:37AM 48.9167 -61.2833 50° Northeast 560 644 31,000  Level Moncton Center
01:38AM 49.0167 -61.1000 50° Northeast 560 644 31,000  Level Moncton Center
01:39AM 49.1000 -60.9000 57° Northeast 560 644 31,000  Level Moncton Center
01:40AM 49.2000 -60.7333 47° Northeast 560 644 31,000  Level Moncton Center
01:41AM 49.3000 -60.5167 55° Northeast 560 644 31,000  Level Moncton Center
01:42AM 49.3833 -60.3333 55° Northeast 560 644 31,000 300 Level Moncton Center
01:43AM 49.4833 -60.1500 50° Northeast 550 633 31,600 840 Climbing Moncton Center
01:44AM 49.5667 -59.9500 57° Northeast 550 633 32,700 960 Climbing Moncton Center
01:45AM 49.6667 -59.7833 47° Northeast 550 633 33,600 180 Climbing Moncton Center
01:51AM 50.1760 -58.6720 47° Northeast 562 647 34,000 60 Climbing FlightAware
01:52AM 50.2220 -58.5620 57° Northeast 562 647 34,000  Level FlightAware
01:53AM 50.2810 -58.4200 57° Northeast 562 647 34,000  Level FlightAware
01:53AM 50.3240 -58.3160 57° Northeast 562 647 34,000  Level FlightAware
01:54AM 50.3820 -58.1760 57° Northeast 562 647 34,000  Level FlightAware
01:55AM 50.4250 -58.0710 57° Northeast 562 647 34,000  Level FlightAware
01:56AM 50.4830 -57.9320 57° Northeast 562 647 34,000  Level FlightAware
01:56AM 50.5260 -57.8270 57° Northeast 562 647 34,000  Level FlightAware
01:57AM 50.5700 -57.7220 57° Northeast 562 647 34,000  Level FlightAware
01:58AM 50.6270 -57.5820 57° Northeast 562 647 34,000  Level FlightAware
01:58AM 50.6710 -57.4760 57° Northeast 562 647 34,000  Level FlightAware
01:59AM 50.7300 -57.3330 57° Northeast 562 647 34,000  Level FlightAware
02:00AM 50.7730 -57.2270 57° Northeast 562 647 34,000  Level FlightAware
02:00AM 50.8280 -57.0920 57° Northeast 562 647 34,000  Level FlightAware
02:01AM 50.8720 -56.9870 56° Northeast 562 647 34,000  Level FlightAware
02:02AM 51.1333 -56.3000 56° Northeast 560 644 34,000  Level Moncton Center
02:03AM 51.2333 -56.0833 54° Northeast 570 656 34,000  Level Moncton Center
02:04AM 51.3000 -55.8667 64° Northeast 570 656 34,000  Level Moncton Center
02:05AM 51.3833 -55.6500 58° Northeast 560 644 34,000  Level Moncton Center
02:06AM 51.4500 -55.4667 60° Northeast 560 644 34,000  Level Moncton Center
02:07AM 51.5333 -55.2500 58° Northeast 550 633 34,000  Level Gander Center
02:08AM 51.6167 -55.0333 58° Northeast 540 621 34,000  Level Gander Center
02:09AM 51.6833 -54.8333 62° Northeast 550 633 34,000  Level Gander Center
02:10AM 51.7667 -54.6000 60° Northeast 550 633 34,000  Level Gander Center
02:11AM 51.8500 -54.4000 56° Northeast 540 621 34,000  Level Gander Center
02:12AM 51.9167 -54.2000 62° Northeast 540 621 34,000  Level Gander Center
02:13AM 51.9833 -53.9667 65° Northeast 550 633 34,000  Level Gander Center
02:14AM 52.0500 -53.7667 61° Northeast 540 621 34,000  Level Gander Center
02:15AM 52.1333 -53.5333 60° Northeast 550 633 34,000  Level Gander Center
02:16AM 52.2167 -53.3333 56° Northeast 550 633 34,000  Level Gander Center
02:17AM 52.2833 -53.0667 68° East 560 644 34,000  Level Gander Center
02:18AM 52.3333 -52.8500 69° East 560 644 34,000  Level Gander Center
02:19AM 52.3833 -52.6167 71° East 560 644 34,000  Level Gander Center
02:20AM 52.4500 -52.3833 65° Northeast 560 644 34,000  Level Gander Center
02:23AM 52.5625 -51.9169 68° East  Level FlightAware Approximate
02:30AM 52.9242 -50.3450 69° East  Level FlightAware Approximate
02:31AM 52.9741 -50.1184 70° East  Level FlightAware Approximate
02:32AM 53.0260 -49.8927 68° East  Level FlightAware Approximate
02:33AM 53.0800 -49.6680 68° East  Level FlightAware Approximate
02:34AM 53.1335 -49.4428 68° East  Level FlightAware Approximate
02:35AM 53.1867 -49.2170 68° East  Level FlightAware Approximate
02:36AM 53.2394 -48.9907 69° East  Level FlightAware Approximate
02:37AM 53.2920 -48.7640 68° East  Level FlightAware Approximate
02:38AM 53.3457 -48.5378 68° East  Level FlightAware Approximate
02:38AM 53.0000 -50.0000 67° East 544 626 34,000  Level ETMS Enhanced Traffic Management System
02:39AM 53.3991 -48.3111 68° East  Level FlightAware Approximate
02:40AM 53.4521 -48.0838 69° East  Level FlightAware Approximate
02:41AM 53.5046 -47.8559 69° East  Level FlightAware Approximate
02:42AM 53.5567 -47.6275 69° East  Level FlightAware Approximate
02:43AM 53.6077 -47.3981 69° East  Level FlightAware Approximate
02:44AM 53.7754 -46.6950 70° East 544 626 34,000  Level FlightAware Transoceanic
02:45AM 53.8273 -46.4544 70° East 544 626 34,000  Level FlightAware Transoceanic
02:46AM 53.8786 -46.2132 70° East 544 626 34,000  Level FlightAware Transoceanic
02:47AM 53.9295 -45.9714 70° East 544 626 34,000  Level FlightAware Transoceanic
02:48AM 53.9799 -45.7290 71° East 544 626 34,000  Level FlightAware Transoceanic
02:49AM 54.0298 -45.4860 71° East 544 626 34,000  Level FlightAware Transoceanic
02:50AM 54.0792 -45.2424 71° East 544 626 34,000  Level FlightAware Transoceanic
02:51AM 54.1282 -44.9983 71° East 544 626 34,000  Level FlightAware Transoceanic
02:52AM 54.1766 -44.7536 71° East 544 626 34,000  Level FlightAware Transoceanic
02:53AM 54.2245 -44.5083 72° East 544 626 34,000  Level FlightAware Transoceanic
02:54AM 54.2719 -44.2624 72° East 544 626 34,000  Level FlightAware Transoceanic
02:55AM 54.3189 -44.0160 72° East 544 626 34,000  Level FlightAware Transoceanic
02:56AM 54.3653 -43.7690 72° East 544 626 34,000  Level FlightAware Transoceanic
02:57AM 54.4112 -43.5215 72° East 544 626 34,000  Level FlightAware Transoceanic
02:58AM 54.4566 -43.2734 73° East 544 626 34,000  Level FlightAware Transoceanic
02:59AM 54.5015 -43.0248 73° East 544 626 34,000  Level FlightAware Transoceanic
03:00AM 54.5459 -42.7756 73° East 544 626 34,000  Level FlightAware Transoceanic
03:01AM 54.5898 -42.5259 73° East 544 626 34,000  Level FlightAware Transoceanic
03:02AM 54.6332 -42.2756 73° East 544 626 34,000  Level FlightAware Transoceanic
03:03AM 54.6760 -42.0248 74° East 544 626 34,000  Level FlightAware Transoceanic
03:04AM 54.7184 -41.7735 74° East 544 626 34,000  Level FlightAware Transoceanic
03:05AM 54.7602 -41.5217 74° East 544 626 34,000  Level FlightAware Transoceanic
03:06AM 54.8015 -41.2693 74° East 544 626 34,000  Level FlightAware Transoceanic
03:07AM 54.8422 -41.0165 74° East 544 626 34,000  Level FlightAware Transoceanic
03:08AM 54.8825 -40.7631 75° East 544 626 34,000  Level FlightAware Transoceanic
03:09AM 54.9222 -40.5092 75° East 544 626 34,000  Level FlightAware Transoceanic
03:10AM 54.9613 -40.2549 75° East 544 626 34,000  Level FlightAware Transoceanic
03:11AM 54.9985 -40.0099 75° East  Level FlightAware Approximate
03:12AM 55.0353 -39.7645 75° East  Level FlightAware Approximate
03:13AM 55.0324 -39.7737 76° East  Level FlightAware Approximate
03:13AM 55.0000 -40.0000 76° East 544 626 34,000  Level ETMS Enhanced Traffic Management System
03:14AM 55.0672 -39.5272 76° East  Level FlightAware Approximate
03:15AM 55.1014 -39.2803 76° East  Level FlightAware Approximate
03:16AM 55.1352 -39.0329 76° East  Level FlightAware Approximate
03:17AM 55.1684 -38.7852 77° East  Level FlightAware Approximate
03:18AM 55.2011 -38.5370 77° East  Level FlightAware Approximate
03:19AM 55.2776 -37.9399 78° East 544 626 34,000  Level FlightAware Transoceanic
03:20AM 55.3099 -37.6805 78° East 544 626 34,000  Level FlightAware Transoceanic
03:21AM 55.3416 -37.4206 78° East 544 626 34,000  Level FlightAware Transoceanic
03:22AM 55.3727 -37.1603 78° East 544 626 34,000  Level FlightAware Transoceanic
03:23AM 55.4034 -36.8995 78° East 544 626 34,000  Level FlightAware Transoceanic
03:24AM 55.4334 -36.6384 79° East 544 626 34,000  Level FlightAware Transoceanic
03:25AM 55.4629 -36.3769 79° East 544 626 34,000  Level FlightAware Transoceanic
03:26AM 55.4918 -36.1150 79° East 544 626 34,000  Level FlightAware Transoceanic
03:27AM 55.5202 -35.8527 79° East 544 626 34,000  Level FlightAware Transoceanic
03:28AM 55.5480 -35.5901 80° East 544 626 34,000  Level FlightAware Transoceanic
03:29AM 55.5752 -35.3270 80° East 544 626 34,000  Level FlightAware Transoceanic
03:30AM 55.6019 -35.0636 80° East 544 626 34,000  Level FlightAware Transoceanic
03:31AM 55.6280 -34.7999 80° East 544 626 34,000  Level FlightAware Transoceanic
03:32AM 55.6535 -34.5358 80° East 544 626 34,000  Level FlightAware Transoceanic
03:33AM 55.6785 -34.2714 81° East 544 626 34,000  Level FlightAware Transoceanic
03:34AM 55.7029 -34.0066 81° East 544 626 34,000  Level FlightAware Transoceanic
03:35AM 55.7268 -33.7415 81° East 544 626 34,000  Level FlightAware Transoceanic
03:36AM 55.7500 -33.4761 81° East 544 626 34,000  Level FlightAware Transoceanic
03:37AM 55.7727 -33.2104 81° East 544 626 34,000  Level FlightAware Transoceanic
03:38AM 55.7948 -32.9444 82° East 544 626 34,000  Level FlightAware Transoceanic
03:39AM 55.8164 -32.6781 82° East 544 626 34,000  Level FlightAware Transoceanic
03:40AM 55.8374 -32.4114 82° East 544 626 34,000  Level FlightAware Transoceanic
03:41AM 55.8577 -32.1445 82° East 544 626 34,000  Level FlightAware Transoceanic
03:42AM 55.8776 -31.8773 83° East 544 626 34,000  Level FlightAware Transoceanic
03:43AM 55.8968 -31.6099 83° East 544 626 34,000  Level FlightAware Transoceanic
03:44AM 55.9155 -31.3422 83° East 544 626 34,000  Level FlightAware Transoceanic
03:45AM 55.9335 -31.0742 83° East 544 626 34,000  Level FlightAware Transoceanic
03:46AM 55.9510 -30.8060 83° East 544 626 34,000  Level FlightAware Transoceanic
03:47AM 55.9679 -30.5376 84° East 544 626 34,000  Level FlightAware Transoceanic
03:48AM 55.9843 -30.2689 84° East 544 626 34,000  Level FlightAware Transoceanic
03:49AM 55.9993 -30.0121 84° East  Level FlightAware Approximate
03:50AM 56.0137 -29.7551 84° East  Level FlightAware Approximate
03:51AM 55.9864 -29.7673 96° East  Level FlightAware Approximate
03:51AM 56.0000 -30.0000 96° East 559 643 34,000  Level ETMS Enhanced Traffic Management System
03:52AM 55.9709 -29.5107 96° East  Level FlightAware Approximate
03:53AM 55.9549 -29.2542 96° East  Level FlightAware Approximate
03:54AM 55.9383 -28.9980 96° East  Level FlightAware Approximate
03:55AM 55.9212 -28.7420 97° East  Level FlightAware Approximate
03:56AM 55.9036 -28.4862 97° East  Level FlightAware Approximate
03:57AM 55.8534 -27.7977 98° East 559 643 34,000  Level FlightAware Transoceanic
03:58AM 55.8323 -27.5237 98° East 559 643 34,000  Level FlightAware Transoceanic
03:59AM 55.8106 -27.2499 98° East 559 643 34,000  Level FlightAware Transoceanic
04:00AM 55.7883 -26.9765 98° East 559 643 34,000  Level FlightAware Transoceanic
04:01AM 55.7654 -26.7034 99° East 559 643 34,000  Level FlightAware Transoceanic
04:02AM 55.7419 -26.4306 99° East 559 643 34,000  Level FlightAware Transoceanic
04:03AM 55.7178 -26.1581 99° East 559 643 34,000  Level FlightAware Transoceanic
04:04AM 55.6931 -25.8860 99° East 559 643 34,000  Level FlightAware Transoceanic
04:05AM 55.6678 -25.6142 99° East 559 643 34,000  Level FlightAware Transoceanic
04:06AM 55.6419 -25.3428 100° East 559 643 34,000  Level FlightAware Transoceanic
04:07AM 55.6154 -25.0717 100° East 559 643 34,000  Level FlightAware Transoceanic
04:08AM 55.5882 -24.8011 100° East 559 643 34,000  Level FlightAware Transoceanic
04:09AM 55.5606 -24.5307 100° East 559 643 34,000  Level FlightAware Transoceanic
04:10AM 55.5322 -24.2608 101° East 559 643 34,000  Level FlightAware Transoceanic
04:11AM 55.5034 -23.9913 101° East 559 643 34,000  Level FlightAware Transoceanic
04:12AM 55.4739 -23.7222 101° East 559 643 34,000  Level FlightAware Transoceanic
04:13AM 55.4438 -23.4534 101° East 559 643 34,000  Level FlightAware Transoceanic
04:14AM 55.4132 -23.1851 101° East 559 643 34,000  Level FlightAware Transoceanic
04:15AM 55.3819 -22.9172 102° East 559 643 34,000  Level FlightAware Transoceanic
04:16AM 55.3501 -22.6498 102° East 559 643 34,000  Level FlightAware Transoceanic
04:17AM 55.3177 -22.3827 102° East 559 643 34,000  Level FlightAware Transoceanic
04:18AM 55.2847 -22.1161 102° East 559 643 34,000  Level FlightAware Transoceanic
04:19AM 55.2511 -21.8500 103° East 559 643 34,000  Level FlightAware Transoceanic
04:20AM 55.2169 -21.5843 103° East 559 643 34,000  Level FlightAware Transoceanic
04:21AM 55.1822 -21.3191 103° East 559 643 34,000  Level FlightAware Transoceanic
04:22AM 55.1469 -21.0543 103° East 559 643 34,000  Level FlightAware Transoceanic
04:23AM 55.1110 -20.7900 103° East 559 643 34,000  Level FlightAware Transoceanic
04:24AM 55.0746 -20.5262 104° East 559 643 34,000  Level FlightAware Transoceanic
04:25AM 55.0376 -20.2628 104° East 559 643 34,000  Level FlightAware Transoceanic
04:26AM 55.0027 -20.0188 104° East  Level FlightAware Approximate
04:27AM 54.9674 -19.7752 104° East  Level FlightAware Approximate
04:28AM 54.9905 -19.7881 94° East  Level FlightAware Approximate
04:29AM 54.9788 -19.5377 95° East  Level FlightAware Approximate
04:30AM 54.9666 -19.2874 95° East  Level FlightAware Approximate
04:31AM 54.9538 -19.0372 95° East  Level FlightAware Approximate
04:32AM 54.9406 -18.7873 95° East  Level FlightAware Approximate
04:33AM 54.9268 -18.5374 95° East  Level FlightAware Approximate
04:34AM 54.9125 -18.2878 96° East  Level FlightAware Approximate
04:35AM 54.8977 -18.0383 96° East  Level FlightAware Approximate
04:36AM 54.8824 -17.7891 96° East  Level FlightAware Approximate
04:37AM 54.8666 -17.5400 96° East  Level FlightAware Approximate
04:38AM 54.8503 -17.2911 96° East  Level FlightAware Approximate
04:39AM 54.8335 -17.0424 97° East  Level FlightAware Approximate
04:40AM 54.8161 -16.7940 97° East  Level FlightAware Approximate
04:41AM 54.7983 -16.5457 97° East  Level FlightAware Approximate
04:42AM 54.7799 -16.2977 97° East  Level FlightAware Approximate
04:43AM 54.7611 -16.0499 97° East  Level FlightAware Approximate
04:44AM 54.7417 -15.8024 98° East  Level FlightAware Approximate
04:45AM 54.7219 -15.5550 98° East  Level FlightAware Approximate
04:46AM 54.7015 -15.3080 98° East  Level FlightAware Approximate
04:47AM 54.6806 -15.0611 98° East  Level FlightAware Approximate
04:48AM 54.6593 -14.8146 98° East  Level FlightAware Approximate
04:49AM 54.6374 -14.5682 99° East  Level FlightAware Approximate
04:50AM 54.6150 -14.3222 99° East  Level FlightAware Approximate
04:51AM 54.5922 -14.0764 99° East  Level FlightAware Approximate
04:51AM 54.9690 -14.0380 99° East 514 592 35,000  Level FlightAware
04:52AM 54.5688 -13.8309 99° East  Level FlightAware Approximate
04:52AM 54.9500 -13.8840 102° East 510 587 35,000  Level FlightAware
04:53AM 54.9260 -13.6890 102° East 508 585 35,000  Level FlightAware
04:53AM 54.9070 -13.5340 102° East 508 585 35,000  Level FlightAware
04:54AM 54.8790 -13.3140 102° East 508 585 35,000  Level FlightAware
04:55AM 54.8550 -13.1330 103° East 509 586 35,000  Level FlightAware
04:55AM 54.8380 -12.9950 102° East 507 583 35,000  Level FlightAware
04:56AM 54.8070 -12.7580 103° East 507 583 35,000  Level FlightAware
04:57AM 54.7880 -12.5770 100° East 506 582 35,000  Level FlightAware
04:58AM 54.7730 -12.4170 99° East 504 580 35,000  Level FlightAware
04:59AM 54.7540 -12.2420 101° East 504 580 35,000  Level FlightAware
04:59AM 54.7370 -12.0820 100° East 504 580 35,000  Level FlightAware
04:59AM 54.7330 -12.0410 100° East 504 580 35,000  Level FlightAware
05:00AM 54.7210 -11.9120 99° East 504 580 35,000  Level FlightAware
05:01AM 54.6890 -11.6630 102° East 502 578 35,000  Level FlightAware
05:02AM 54.6640 -11.4660 102° East 500 575 35,000  Level FlightAware
05:02AM 54.6430 -11.3120 103° East 502 578 35,000  Level FlightAware
05:03AM 54.6220 -11.1570 103° East 500 575 35,000  Level FlightAware
05:04AM 54.6080 -11.0670 105° East 501 577 35,000  Level FlightAware
05:04AM 54.5840 -10.9030 104° East 502 578 35,000  Level FlightAware
05:05AM 54.5610 -10.7480 104° East 505 581 35,000  Level FlightAware
05:06AM 54.5330 -10.5720 105° East 506 582 35,000  Level FlightAware
05:06AM 54.5090 -10.4190 105° East 507 583 35,000  Level FlightAware
05:07AM 54.4810 -10.2430 105° East 508 585 35,000  Level FlightAware
05:08AM 54.4530 -10.0890 107° East 507 583 35,000  Level FlightAware
05:08AM 54.4230 -9.9370 109° East 507 583 35,000  Level FlightAware
05:09AM 54.3970 -9.8040 109° East 506 582 35,000  Level FlightAware
05:10AM 54.3630 -9.6340 109° East 506 582 35,000  Level FlightAware
05:10AM 54.3330 -9.4810 109° East 506 582 35,000  Level FlightAware
05:11AM 54.3100 -9.3700 110° East 506 582 35,000  Level FlightAware
05:12AM 54.2710 -9.1780 109° East 506 582 35,000  Level FlightAware
05:12AM 54.2370 -9.0090 109° East 505 581 35,000  Level FlightAware
05:13AM 54.2016 -8.7610 109° East 494 568 35,000  Level FlightAware UK
05:13AM 54.2060 -8.8550 109° East 506 582 35,000  Level FlightAware
05:14AM 54.1710 -8.6890 110° East 506 582 35,000  Level FlightAware
05:15AM 54.1314 -8.4211 110° East 496 571 35,000  Level FlightAware UK
05:15AM 54.1340 -8.5120 110° East 506 582 35,000  Level FlightAware
05:15AM 54.1079 -8.3082 110° East 494 568 35,000  Level FlightAware UK
05:16AM 54.0795 -8.1728 110° East 494 568 35,000  Level FlightAware UK
05:16AM 54.0880 -8.2900 110° East 510 587 35,000  Level FlightAware
05:17AM 54.0410 -8.0680 110° East 512 589 35,000  Level FlightAware
05:17AM 54.0079 -7.8327 110° East 496 571 35,000  Level FlightAware UK
05:17AM 54.0080 -7.9130 110° East 513 590 35,000  Level FlightAware
05:18AM 53.9750 -7.7550 109° East 513 590 35,000  Level FlightAware
05:19AM 53.9366 -7.4927 109° East 494 568 35,000  Level FlightAware UK
05:19AM 53.9430 -7.6050 109° East 513 590 35,000  Level FlightAware
05:19AM 53.9070 -7.4350 110° East 513 590 35,000  Level FlightAware
05:20AM 53.8720 -7.2780 111° Southeast 513 590 35,000  Level FlightAware
05:21AM 53.8380 -7.0412 111° Southeast 496 571 35,000  Level FlightAware UK
05:21AM 53.8370 -7.1210 111° Southeast 513 590 35,000  Level FlightAware
05:22AM 53.8010 -6.9560 110° East 512 589 35,000  Level FlightAware
05:22AM 53.7631 -6.7047 110° East 498 573 35,000  Level FlightAware UK
05:22AM 53.7680 -6.8110 110° East 512 589 35,000  Level FlightAware
05:23AM 53.7330 -6.6560 111° Southeast 510 587 35,000  Level FlightAware
05:24AM 53.6930 -6.4850 111° Southeast 510 587 35,000  Level FlightAware
05:24AM 53.6615 -6.2603 111° Southeast 498 573 35,000  Level FlightAware UK
05:24AM 53.6580 -6.3310 111° Southeast 509 586 35,000  Level FlightAware
05:25AM 53.6240 -6.1850 111° Southeast 507 583 35,000  Level FlightAware
05:26AM 53.5870 -6.0270 111° Southeast 507 583 35,000  Level FlightAware
05:26AM 53.5486 -5.7759 111° Southeast 498 573 35,000  Level FlightAware UK
05:26AM 53.5530 -5.8810 111° Southeast 506 582 35,000  Level FlightAware
05:27AM 53.5210 -5.7460 112° Southeast 506 582 35,000  Level FlightAware
05:28AM 53.4910 -5.5950 108° East 510 587 35,000  Level FlightAware
05:28AM 53.4763 -5.3235 108° East 496 571 35,000  Level FlightAware UK
05:28AM 53.4800 -5.4230 108° East 512 589 35,000  Level FlightAware
05:29AM 53.4760 -5.2800 93° East 512 589 35,000  Level FlightAware
05:30AM 53.4600 -5.1270 100° East 507 583 35,000  Level FlightAware
05:30AM 53.4330 -4.9660 106° East 508 585 35,000  Level FlightAware
05:31AM 53.4070 -4.8060 105° East 509 586 35,000  Level FlightAware
05:32AM 53.3813 -4.5628 105° East 494 568 35,000  Level FlightAware UK
05:32AM 53.3820 -4.6530 105° East 510 587 35,000  Level FlightAware
05:32AM 53.3560 -4.4880 105° East 512 589 35,000  Level FlightAware
05:33AM 53.3310 -4.3370 105° East 512 589 35,000  Level FlightAware
05:33AM 53.3258 -4.2192 105° East 496 571 35,000  Level FlightAware UK
05:34AM 53.3067 -4.1050 105° East 496 571 35,000  Level FlightAware UK
05:34AM 53.3050 -4.1840 105° East 512 589 35,000  Level FlightAware
05:34AM 53.2800 -4.0380 106° East 512 589 35,000  Level FlightAware
05:35AM 53.2520 -3.8730 106° East 511 588 35,000  Level FlightAware
05:36AM 53.2270 -3.7270 106° East 511 588 35,000  Level FlightAware
05:36AM 53.2210 -3.6032 106° East 496 571 35,000  Level FlightAware UK
05:36AM 53.2123 -3.6430 106° East 511 588 35,000  Level FlightAware ADS-B
05:36AM 53.1972 -3.5684 109° East 509 586 35,000  Level FlightAware ADS-B
05:37AM 53.1607 -3.4427 116° Southeast 502 578 35,000  Level FlightAware ADS-B
05:38AM 53.1220 -3.3436 123° Southeast 501 577 35,000  Level FlightAware ADS-B
05:38AM 53.0721 -3.2198 124° Southeast 500 575 35,000  Level FlightAware ADS-B
05:39AM 53.0269 -3.1082 124° Southeast 499 574 35,000  Level FlightAware ADS-B
05:39AM 52.9855 -3.0093 125° Southeast 498 573 35,000  Level FlightAware ADS-B
05:40AM 52.9411 -2.9155 128° Southeast 496 571 35,000  Level FlightAware ADS-B
05:40AM 52.8961 -2.8272 130° Southeast 495 570 35,000  Level FlightAware ADS-B
05:41AM 52.8460 -2.7335 131° Southeast 494 568 35,000  Level FlightAware ADS-B
05:41AM 52.7978 -2.6448 132° Southeast 493 567 35,000  Level FlightAware ADS-B
05:42AM 52.7517 -2.5610 132° Southeast 492 566 35,000  Level FlightAware ADS-B
05:43AM 52.7020 -2.4709 132° Southeast 491 565 35,000  Level FlightAware ADS-B
05:43AM 52.6471 -2.3713 132° Southeast 490 564 35,000  Level FlightAware ADS-B
05:44AM 52.5994 -2.2845 132° Southeast 489 563 35,000  Level FlightAware ADS-B
05:44AM 52.5489 -2.1927 132° Southeast 488 562 35,000  Level FlightAware ADS-B
05:45AM 52.5013 -2.1065 132° Southeast 488 562 35,000  Level FlightAware ADS-B
05:45AM 52.4535 -2.0198 132° Southeast 488 562 35,000  Level FlightAware ADS-B
05:46AM 52.4066 -1.9350 132° Southeast 487 560 35,000  Level FlightAware ADS-B
05:46AM 52.3591 -1.8494 132° Southeast 486 559 35,000  Level FlightAware ADS-B
05:47AM 52.3132 -1.7671 132° Southeast 484 557 35,000  Level FlightAware ADS-B
05:47AM 52.2529 -1.6593 132° Southeast 484 557 35,000  Level FlightAware ADS-B
05:48AM 52.2058 -1.5755 133° Southeast 484 557 35,000  Level FlightAware ADS-B
05:49AM 52.1560 -1.4868 132° Southeast 485 558 35,000  Level FlightAware ADS-B
05:49AM 52.1075 -1.4011 133° Southeast 483 556 35,000  Level FlightAware ADS-B
05:50AM 52.0619 -1.3211 133° Southeast 481 554 35,000  Level FlightAware ADS-B
05:50AM 52.0141 -1.2371 133° Southeast 480 552 35,000  Level FlightAware ADS-B
05:51AM 51.9685 -1.1573 133° Southeast 477 549 35,000  Level FlightAware ADS-B
05:51AM 51.9195 -1.0720 133° Southeast 475 547 35,000  Level FlightAware ADS-B
05:52AM 51.8743 -0.9937 133° Southeast 473 544 35,000  Level FlightAware ADS-B
05:52AM 51.8295 -0.9160 133° Southeast 472 543 35,000  Level FlightAware ADS-B
05:53AM 51.7846 -0.8385 133° Southeast 471 542 35,000  Level FlightAware ADS-B
05:53AM 51.7395 -0.7608 133° Southeast 470 541 35,000  Level FlightAware ADS-B
05:54AM 51.6931 -0.6813 133° Southeast 470 541 35,000  Level FlightAware ADS-B
05:54AM 51.6481 -0.6042 133° Southeast 470 541 35,000  Level FlightAware ADS-B
05:55AM 51.6095 -0.5380 133° Southeast 470 541 35,000  Level FlightAware ADS-B
05:55AM 51.5921 -0.5033 129° Southeast 475 547 35,000  Level FlightAware ADS-B
05:55AM 51.5736 -0.4584 124° Southeast 481 554 35,000  Level FlightAware ADS-B
05:55AM 51.5586 -0.4112 117° Southeast 487 560 35,000  Level FlightAware ADS-B
05:56AM 51.5428 -0.3381 109° East 496 571 35,000  Level FlightAware ADS-B
05:56AM 51.5354 -0.2754 101° East 504 580 35,000  Level FlightAware ADS-B
05:56AM 51.5267 -0.1639 97° East 504 580 35,000  Level FlightAware ADS-B
05:57AM 51.5180 -0.0513 97° East 503 579 35,000  Level FlightAware ADS-B
05:57AM 51.5053 0.0616 100° East 500 575 35,000  Level FlightAware ADS-B
05:58AM 51.4895 0.1735 103° East 499 574 35,000  Level FlightAware ADS-B
05:59AM 51.4665 0.3303 103° East 499 574 35,000  Level FlightAware ADS-B
05:59AM 51.4499 0.4403 104° East 499 574 35,000  Level FlightAware ADS-B
06:00AM 51.4332 0.5492 104° East 500 575 35,000  Level FlightAware ADS-B
06:00AM 51.4158 0.6629 104° East 501 577 35,000  Level FlightAware ADS-B
06:01AM 51.3985 0.7731 104° East 500 575 35,000  Level FlightAware ADS-B
06:01AM 51.3803 0.8894 104° East 500 575 35,000  Level FlightAware ADS-B
06:02AM 51.3586 1.0265 104° East 500 575 35,000  Level FlightAware ADS-B
06:03AM 51.3238 1.2970 104° East 496 571 35,000  Level FlightAware UK
06:03AM 51.3330 1.1830 104° East 500 575 35,000  Level FlightAware
06:04AM 51.3020 1.3770 104° East 500 575 35,000  Level FlightAware
06:04AM 51.2668 1.6420 104° East 498 573 35,000  Level FlightAware UK
06:04AM 51.2760 1.5370 104° East 500 575 35,000  Level FlightAware
06:05AM 51.2520 1.6820 105° East 502 578 35,000  Level FlightAware
06:06AM 51.2280 1.8220 105° East 501 577 35,000  Level FlightAware
06:06AM 51.2000 1.9860 105° East 502 578 35,000  Level FlightAware
06:07AM 51.1730 2.1460 105° East 502 578 35,000  Level FlightAware
06:08AM 51.1339 2.4141 105° East 500 575 35,000  Level FlightAware UK
06:08AM 51.1151 2.5215 106° East 500 575 35,000  Level FlightAware UK
06:08AM 51.1300 2.3990 106° East 502 578 35,000  Level FlightAware
06:09AM 51.0922 2.6492 106° East 498 573 35,000  Level FlightAware UK
06:09AM 51.1040 2.5480 106° East 501 577 35,000  Level FlightAware
06:10AM 51.0693 2.7768 106° East 500 575 35,000  Level FlightAware UK
06:10AM 51.0760 2.7050 106° East 500 575 35,000  Level FlightAware
06:10AM 51.0510 2.8460 106° East 501 577 35,000  Level FlightAware
06:11AM 51.0075 3.1165 106° East 498 573 35,000  Level FlightAware UK
06:12AM 51.0110 3.0660 106° East 502 578 35,000  Level FlightAware
06:12AM 50.9850 3.2130 106° East 502 578 35,000  Level FlightAware
06:13AM 50.9560 3.3680 106° East 503 579 35,000  Level FlightAware
06:14AM 50.9290 3.5150 106° East 502 578 35,000  Level FlightAware
06:14AM 50.9000 3.6680 107° East 502 578 35,000  Level FlightAware
06:16AM 50.8364 4.0281 107° East 500 575 35,000  Level FlightAware UK
06:16AM 50.8350 4.0160 107° East 502 578 35,000  Level FlightAware
06:17AM 50.7990 4.2040 107° East 502 578 35,000  Level FlightAware
06:17AM 50.7784 4.3233 107° East 500 575 35,000  Level FlightAware UK
06:18AM 50.7533 4.4494 107° East 500 575 35,000  Level FlightAware UK
06:18AM 50.7680 4.3650 107° East 502 578 35,000  Level FlightAware
06:18AM 50.7460 4.4760 107° East 503 579 35,000  Level FlightAware
06:19AM 50.7160 4.6310 107° East 502 578 35,000  Level FlightAware
06:20AM 50.6880 4.7700 108° East 503 579 35,000  Level FlightAware
06:20AM 50.6520 4.9160 111° Southeast 494 568 35,000  Level FlightAware
06:21AM 50.6020 5.0270 125° Southeast 494 568 35,000  Level FlightAware
06:22AM 50.5420 5.1670 124° Southeast 495 570 35,000  Level FlightAware
06:22AM 50.4940 5.2820 123° Southeast 496 571 35,000  Level FlightAware
06:23AM 50.4540 5.3820 122° Southeast 497 572 35,000  Level FlightAware
06:24AM 50.3890 5.5320 124° Southeast 494 568 35,000  Level FlightAware
06:24AM 50.3390 5.6430 125° Southeast 494 568 35,000  Level FlightAware
06:25AM 50.2900 5.7510 125° Southeast 494 568 35,000  Level FlightAware
06:26AM 50.2350 5.8730 125° Southeast 494 568 35,000  Level FlightAware
06:26AM 50.1840 5.9860 125° Southeast 493 567 35,000  Level FlightAware
06:27AM 50.1280 6.1110 125° Southeast 493 567 35,000  Level FlightAware
06:28AM 50.0690 6.2400 125° Southeast 493 567 35,000  Level FlightAware
06:28AM 50.0170 6.3550 125° Southeast 492 566 35,000  Level FlightAware
06:29AM 49.9590 6.4800 126° Southeast 493 567 35,000  Level FlightAware
06:31AM 49.8630 6.6880 126° Southeast 495 570 35,000  Level FlightAware
06:31AM 49.7940 6.8350 126° Southeast 495 570 35,000  Level FlightAware
06:32AM 49.7230 6.9870 126° Southeast 496 571 35,000  Level FlightAware
06:33AM 49.6680 7.1020 126° Southeast 496 571 35,000  Level FlightAware
06:34AM 49.6080 7.2280 126° Southeast 496 571 35,000  Level FlightAware
06:34AM 49.5530 7.3440 126° Southeast 497 572 35,000  Level FlightAware
06:35AM 49.4980 7.4580 127° Southeast 498 573 35,000  Level FlightAware
06:36AM 49.4380 7.5810 127° Southeast 499 574 35,000  Level FlightAware
06:36AM 49.3910 7.6780 127° Southeast 500 575 35,000  Level FlightAware
06:37AM 49.3310 7.8010 127° Southeast 501 577 35,000  Level FlightAware
06:38AM 49.2720 7.9230 127° Southeast 502 578 35,000  Level FlightAware
06:38AM 49.2170 8.0260 129° Southeast 500 575 35,000  Level FlightAware
06:39AM 49.1420 8.1430 134° Southeast 500 575 35,000  Level FlightAware
06:40AM 49.0820 8.2320 136° Southeast 495 570 35,000  Level FlightAware
06:41AM 48.9870 8.3700 136° Southeast 495 570 35,000  Level FlightAware
06:41AM 48.9220 8.4640 136° Southeast 502 578 35,000  Level FlightAware
06:42AM 48.8540 8.5610 137° Southeast 503 579 35,000  Level FlightAware
06:43AM 48.7790 8.6690 136° Southeast 504 580 35,000  Level FlightAware
06:43AM 48.7020 8.7780 137° Southeast 505 581 35,000  Level FlightAware
06:44AM 48.6440 8.8590 137° Southeast 505 581 35,000  Level FlightAware
06:45AM 48.5860 8.9420 137° Southeast 506 582 35,000  Level FlightAware
06:46AM 48.4510 9.1310 137° Southeast 506 582 35,000  Level FlightAware
06:47AM 48.3310 9.2950 138° Southeast 497 572 35,000  Level FlightAware
06:48AM 48.2550 9.3830 142° Southeast 503 579 35,000  Level FlightAware
06:48AM 48.1710 9.4730 144° Southeast 496 571 35,000  Level FlightAware
06:49AM 48.0960 9.5540 144° Southeast 496 571 35,000  Level FlightAware
06:50AM 48.0100 9.6450 145° Southeast 496 571 35,000  Level FlightAware
06:51AM 47.9340 9.7250 145° Southeast 497 572 35,000  Level FlightAware
06:51AM 47.8620 9.8020 144° Southeast 496 571 35,000  Level FlightAware
06:52AM 47.7750 9.8930 145° Southeast 495 570 35,000  Level FlightAware
06:53AM 47.7020 9.9700 145° Southeast 495 570 35,000  Level FlightAware
06:53AM 47.6120 10.0640 145° Southeast 501 577 35,000  Level FlightAware
06:54AM 47.5480 10.1310 145° Southeast 494 568 35,000  Level FlightAware
06:55AM 47.4720 10.2090 145° Southeast 494 568 35,000  Level FlightAware
06:55AM 47.3770 10.3080 145° Southeast 501 577 35,000  Level FlightAware
06:56AM 47.2940 10.3940 145° Southeast 500 575 35,000  Level FlightAware
06:57AM 47.2160 10.4740 145° Southeast 501 577 35,000  Level FlightAware
06:58AM 47.1330 10.5590 145° Southeast 502 578 35,000  Level FlightAware
06:58AM 47.0490 10.6690 138° Southeast 499 574 35,000  Level FlightAware
06:59AM 46.9790 10.7790 133° Southeast 495 570 35,000  Level FlightAware
07:01AM 46.8190 11.0190 134° Southeast 501 577 35,000  Level FlightAware
07:02AM 46.7230 11.1690 133° Southeast 497 572 35,000  Level FlightAware
07:03AM 46.6510 11.2790 134° Southeast 498 573 35,000  Level FlightAware
07:03AM 46.5930 11.3670 134° Southeast 498 573 35,000  Level FlightAware
07:04AM 46.5210 11.4770 134° Southeast 498 573 35,000  Level FlightAware
07:05AM 46.4490 11.5870 134° Southeast 499 574 35,000  Level FlightAware
07:05AM 46.3850 11.6830 134° Southeast 499 574 35,000  Level FlightAware
07:06AM 46.3120 11.7930 134° Southeast 499 574 35,000  Level FlightAware
07:09AM 46.1280 12.2369 121° Southeast  Level Estimated
07:10AM 46.0534 12.4148 121° Southeast  Level Estimated
07:11AM 45.9785 12.5922 121° Southeast  Level Estimated
07:12AM 45.9034 12.7692 121° Southeast  Level Estimated
07:13AM 45.8280 12.9457 121° Southeast  Level Estimated
07:13AM 45.6030 12.8500 122° Southeast 506 582 35,000  Level FlightAware
07:14AM 45.7523 13.1217 122° Southeast  Level Estimated
07:15AM 45.3990 13.1470 121° Southeast 504 580 35,000  Level FlightAware
07:16AM 45.4429 13.2289 121° Southeast  Level Estimated
07:16AM 45.3420 13.2290 135° Southeast 504 580 35,000  Level FlightAware
07:16AM 45.3070 13.2790 135° Southeast 503 579 35,000  Level FlightAware
07:17AM 45.2290 13.3910 135° Southeast 504 580 35,000  Level FlightAware
07:18AM 45.1660 13.4820 134° Southeast 504 580 35,000  Level FlightAware
07:18AM 45.1050 13.5680 135° Southeast 504 580 35,000  Level FlightAware
07:19AM 45.0240 13.6830 135° Southeast 505 581 35,000  Level FlightAware
07:20AM 44.9590 13.7750 135° Southeast 499 574 35,000  Level FlightAware
07:21AM 44.8780 13.9030 132° Southeast 501 577 35,000  Level FlightAware
07:21AM 44.8280 13.9990 126° Southeast 499 574 35,000  Level FlightAware
07:22AM 44.7740 14.1080 125° Southeast 494 568 35,000  Level FlightAware
07:23AM 44.7170 14.2240 125° Southeast 493 567 35,000  Level FlightAware
07:23AM 44.6660 14.3270 125° Southeast 492 566 35,000  Level FlightAware
07:24AM 44.6040 14.4520 125° Southeast 494 568 35,000  Level FlightAware
07:25AM 44.5540 14.5530 125° Southeast 494 568 35,000  Level FlightAware
07:25AM 44.5120 14.6360 125° Southeast 500 575 35,000  Level FlightAware
07:26AM 44.4460 14.7680 125° Southeast 502 578 35,000  Level FlightAware
07:27AM 44.3840 14.8900 125° Southeast 502 578 35,000  Level FlightAware
07:28AM 44.3110 15.0340 125° Southeast 500 575 35,000  Level FlightAware
07:29AM 44.2450 15.1620 126° Southeast 501 577 35,000  Level FlightAware
07:29AM 44.1860 15.2770 126° Southeast 501 577 35,000  Level FlightAware
07:31AM 44.0980 15.4510 125° Southeast 501 577 35,000  Level FlightAware
07:31AM 44.0500 15.5400 127° Southeast 502 578 35,000  Level FlightAware
07:32AM 43.9740 15.6850 126° Southeast 498 573 35,000  Level FlightAware
07:33AM 43.9200 15.7880 126° Southeast 498 573 35,000  Level FlightAware
07:33AM 43.8570 15.9090 126° Southeast 496 571 35,000  Level FlightAware
07:34AM 43.8060 16.0050 126° Southeast 497 572 35,000  Level FlightAware
07:35AM 43.7420 16.1260 126° Southeast 497 572 35,000 240 Level FlightAware
07:35AM 43.6890 16.2250 126° Southeast 500 575 35,400 1,020 Climbing FlightAware
07:36AM 43.6310 16.3350 126° Southeast 500 575 36,400 1,320 Climbing FlightAware
07:37AM 43.5810 16.4390 124° Southeast 498 573 37,200 1,020 Climbing FlightAware
07:37AM 43.5300 16.5500 122° Southeast 507 583 37,800 780 Climbing FlightAware
07:38AM 43.4790 16.6610 122° Southeast 505 581 38,300 720 Climbing FlightAware
07:39AM 43.4240 16.7860 121° Southeast 507 583 38,900 420 Climbing FlightAware
07:40AM 43.3690 16.9110 121° Southeast 509 586 39,000 60 Climbing FlightAware
07:40AM 43.3220 17.0240 120° Southeast 510 587 39,000  Level FlightAware
07:41AM 43.2720 17.1430 120° Southeast 509 586 39,000  Level FlightAware
07:42AM 43.2240 17.2580 120° Southeast 513 590 39,000  Level FlightAware
07:42AM 43.1760 17.3740 120° Southeast 515 593 39,000  Level FlightAware
07:43AM 43.1010 17.4860 133° Southeast 527 606 39,000  Level FlightAware
07:44AM 43.0270 17.5760 138° Southeast 522 601 39,000  Level FlightAware
07:44AM 42.9660 17.6530 137° Southeast 524 603 39,000  Level FlightAware
07:45AM 42.8860 17.7660 134° Southeast 534 615 39,000  Level FlightAware
07:46AM 42.8200 17.8570 135° Southeast 537 618 39,000  Level FlightAware
07:46AM 42.7550 17.9450 135° Southeast 534 615 39,000  Level FlightAware
07:47AM 42.6820 18.0420 136° Southeast 524 603 39,000  Level FlightAware
07:48AM 42.6130 18.1340 136° Southeast 519 597 39,000  Level FlightAware
07:48AM 42.5520 18.2160 135° Southeast 516 594 39,000  Level FlightAware
07:49AM 42.4730 18.3220 135° Southeast 511 588 39,000  Level FlightAware
07:50AM 42.4070 18.4100 135° Southeast 511 588 39,000  Level FlightAware
07:51AM 42.3330 18.5090 135° Southeast 512 589 39,000  Level FlightAware
07:51AM 42.2640 18.6000 136° Southeast 514 592 39,000  Level FlightAware
07:52AM 42.1960 18.6900 136° Southeast 520 598 39,000  Level FlightAware
07:53AM 42.1200 18.7900 136° Southeast 522 601 39,000  Level FlightAware
07:53AM 42.0300 18.9090 135° Southeast 522 601 39,000  Level FlightAware
07:54AM 41.9620 18.9980 136° Southeast 521 600 39,000  Level FlightAware
07:55AM 41.8920 19.0900 136° Southeast 523 602 39,000  Level FlightAware
07:56AM 41.8170 19.1860 136° Southeast 525 604 39,000  Level FlightAware
07:56AM 41.7380 19.2880 136° Southeast 526 605 39,000  Level FlightAware
07:57AM 41.6680 19.3790 136° Southeast 529 609 39,000  Level FlightAware
07:58AM 41.5910 19.4770 136° Southeast 529 609 39,000  Level FlightAware
07:58AM 41.5190 19.5690 136° Southeast 530 610 39,000  Level FlightAware
07:59AM 41.4450 19.6630 136° Southeast 531 611 39,000  Level FlightAware
08:00AM 41.3680 19.7660 135° Southeast 532 612 39,000  Level FlightAware
08:00AM 41.2980 19.8600 135° Southeast 531 611 39,000  Level FlightAware
08:01AM 41.2240 19.9600 135° Southeast 531 611 39,000  Level FlightAware
08:02AM 41.1540 20.0530 135° Southeast 531 611 39,000  Level FlightAware
08:03AM 41.0820 20.1480 135° Southeast 532 612 39,000  Level FlightAware
08:03AM 41.0030 20.2500 136° Southeast 533 613 39,000  Level FlightAware
08:04AM 40.9330 20.3420 135° Southeast 534 615 39,000  Level FlightAware
08:05AM 40.8570 20.4420 135° Southeast 533 613 39,000  Level FlightAware
08:05AM 40.7950 20.5220 136° Southeast 533 613 39,000  Level FlightAware
08:06AM 40.7290 20.6090 135° Southeast 533 613 39,000  Level FlightAware
08:06AM 40.6790 20.6720 136° Southeast 532 612 39,000  Level FlightAware
08:07AM 40.6120 20.7600 135° Southeast 531 611 39,000  Level FlightAware
08:08AM 40.5420 20.8440 138° Southeast 528 608 39,000  Level FlightAware
08:08AM 40.4600 20.9420 138° Southeast 525 604 39,000  Level FlightAware
08:09AM 40.3960 21.0190 137° Southeast 525 604 39,000  Level FlightAware
08:10AM 40.3210 21.1080 138° Southeast 523 602 39,000  Level FlightAware
08:10AM 40.2710 21.1680 138° Southeast 523 602 39,000  Level FlightAware
08:11AM 40.2160 21.2330 138° Southeast 522 601 39,000  Level FlightAware
08:12AM 40.0950 21.3780 137° Southeast 521 600 39,000  Level FlightAware
08:12AM 40.0200 21.4660 138° Southeast 522 601 39,000  Level FlightAware
08:13AM 39.9450 21.5550 138° Southeast 524 603 39,000  Level FlightAware
08:14AM 39.8680 21.6450 138° Southeast 527 606 39,000  Level FlightAware
08:15AM 39.7930 21.7330 138° Southeast 526 605 39,000  Level FlightAware
08:15AM 39.7140 21.8270 138° Southeast 524 603 39,000  Level FlightAware
08:16AM 39.6410 21.9110 138° Southeast 524 603 39,000  Level FlightAware
08:17AM 39.5710 21.9930 138° Southeast 522 601 39,000  Level FlightAware
08:17AM 39.4900 22.0860 138° Southeast 522 601 39,000  Level FlightAware
08:18AM 39.4250 22.1610 138° Southeast 521 600 39,000  Level FlightAware
08:19AM 39.3500 22.2470 138° Southeast 521 600 39,000  Level FlightAware
08:19AM 39.2710 22.3390 138° Southeast 521 600 39,000  Level FlightAware
08:20AM 39.2000 22.4200 139° Southeast 521 600 39,000  Level FlightAware
08:21AM 39.1370 22.4930 138° Southeast 522 601 39,000  Level FlightAware
08:22AM 39.0460 22.5970 138° Southeast 524 603 39,000  Level FlightAware
08:22AM 38.9850 22.6660 139° Southeast 525 604 39,000  Level FlightAware
08:23AM 38.9010 22.7610 139° Southeast 525 604 39,000  Level FlightAware
08:23AM 38.8280 22.8440 138° Southeast 525 604 39,000  Level FlightAware
08:24AM 38.7540 22.9270 139° Southeast 524 603 39,000  Level FlightAware
08:25AM 38.6830 23.0070 139° Southeast 522 601 39,000  Level FlightAware
08:25AM 38.6170 23.0810 139° Southeast 520 598 39,000  Level FlightAware
08:26AM 38.5350 23.1730 139° Southeast 520 598 39,000  Level FlightAware
08:27AM 38.4620 23.2540 139° Southeast 519 597 39,000  Level FlightAware
08:28AM 38.3850 23.3410 138° Southeast 518 596 39,000  Level FlightAware
08:28AM 38.3120 23.4230 139° Southeast 517 595 39,000  Level FlightAware
08:29AM 38.2330 23.5110 139° Southeast 515 593 39,000  Level FlightAware
08:30AM 38.1610 23.5920 138° Southeast 515 593 39,000  Level FlightAware
08:30AM 38.0850 23.6760 139° Southeast 515 593 39,000  Level FlightAware
08:31AM 38.0070 23.7630 139° Southeast 515 593 39,000  Level FlightAware
08:32AM 37.9360 23.8410 139° Southeast 514 592 39,000  Level FlightAware
08:32AM 37.8570 23.9240 140° Southeast 513 590 39,000  Level FlightAware
08:33AM 37.7840 24.0020 140° Southeast 513 590 39,000  Level FlightAware
08:34AM 37.7110 24.0810 139° Southeast 515 593 39,000  Level FlightAware
08:35AM 37.6390 24.1800 133° Southeast 528 608 39,000  Level FlightAware
08:35AM 37.5820 24.2950 122° Southeast 536 617 39,000  Level FlightAware
08:36AM 37.5290 24.4060 121° Southeast 538 619 39,000  Level FlightAware
08:37AM 37.4740 24.5210 121° Southeast 540 621 39,000  Level FlightAware
08:37AM 37.4210 24.6310 121° Southeast 541 623 39,000  Level FlightAware
08:38AM 37.3620 24.7520 122° Southeast 541 623 39,000  Level FlightAware
08:39AM 37.3110 24.8580 121° Southeast 541 623 39,000  Level FlightAware
08:39AM 37.2510 24.9780 122° Southeast 542 624 39,000  Level FlightAware
08:40AM 37.2040 25.0750 121° Southeast 542 624 39,000  Level FlightAware
08:41AM 37.1520 25.1820 121° Southeast 542 624 39,000  Level FlightAware
08:42AM 37.0930 25.3040 121° Southeast 540 621 39,000  Level FlightAware
08:42AM 37.0420 25.4080 122° Southeast 541 623 39,000  Level FlightAware
08:43AM 36.9810 25.5320 122° Southeast 540 621 39,000  Level FlightAware
08:44AM 36.9270 25.6420 122° Southeast 541 623 39,000  Level FlightAware
08:44AM 36.8820 25.7320 122° Southeast 540 621 39,000  Level FlightAware
08:45AM 36.8270 25.8410 122° Southeast 540 621 39,000  Level FlightAware
08:46AM 36.7680 25.9600 122° Southeast 538 619 39,000  Level FlightAware
08:46AM 36.7250 26.0450 122° Southeast 538 619 39,000  Level FlightAware
08:47AM 36.6680 26.1590 122° Southeast 536 617 39,000  Level FlightAware
08:48AM 36.6130 26.2690 122° Southeast 535 616 39,000  Level FlightAware
08:48AM 36.5690 26.3560 122° Southeast 534 615 39,000  Level FlightAware
08:49AM 36.5160 26.4630 122° Southeast 531 611 39,000  Level FlightAware
08:50AM 36.4640 26.5650 122° Southeast 531 611 39,000  Level FlightAware
08:50AM 36.4110 26.6690 122° Southeast 530 610 39,000  Level FlightAware
08:51AM 36.3560 26.7760 123° Southeast 530 610 39,000  Level FlightAware
08:52AM 36.3000 26.8850 122° Southeast 530 610 39,000  Level FlightAware
08:52AM 36.2410 27.0010 122° Southeast 529 609 39,000  Level FlightAware
08:53AM 36.1870 27.1080 122° Southeast 529 609 39,000  Level FlightAware
08:55AM 36.0030 27.4570 121° Southeast 520 598 39,000  Level FlightAware
08:56AM 36.0178 27.4583 121° Southeast  Level Estimated
08:56AM 35.9240 27.6070 123° Southeast 519 597 39,000  Level FlightAware
08:57AM 35.8700 27.7090 123° Southeast 522 601 39,000  Level FlightAware
08:58AM 35.8120 27.8170 123° Southeast 521 600 39,000  Level FlightAware
08:58AM 35.7700 27.8970 123° Southeast 521 600 39,000  Level FlightAware
08:59AM 35.6780 28.0660 124° Southeast 520 598 39,000  Level FlightAware
09:00AM 35.6380 28.1420 123° Southeast 521 600 39,000  Level FlightAware
09:01AM 35.5740 28.2600 124° Southeast 521 600 39,000  Level FlightAware
09:01AM 35.5210 28.3580 124° Southeast 521 600 39,000  Level FlightAware
09:02AM 35.4620 28.4660 124° Southeast 521 600 39,000  Level FlightAware
09:03AM 35.4060 28.5690 124° Southeast 521 600 39,000  Level FlightAware
09:04AM 35.3480 28.6740 124° Southeast 520 598 39,000  Level FlightAware
09:04AM 35.2960 28.7690 124° Southeast 517 595 39,000  Level FlightAware
09:05AM 35.2110 28.9230 124° Southeast 516 594 39,000  Level FlightAware
09:06AM 35.1460 29.0390 124° Southeast 513 590 39,000  Level FlightAware
09:07AM 35.0950 29.1310 124° Southeast 513 590 39,000  Level FlightAware
09:08AM 35.0340 29.2400 124° Southeast 513 590 39,000  Level FlightAware
09:08AM 34.9740 29.3450 125° Southeast 511 588 39,000  Level FlightAware
09:09AM 34.9250 29.4320 124° Southeast 510 587 39,000  Level FlightAware
09:09AM 34.8730 29.5240 125° Southeast 508 585 39,000  Level FlightAware
09:10AM 34.8120 29.6320 125° Southeast 508 585 39,000  Level FlightAware
09:11AM 34.7400 29.7590 125° Southeast 507 583 39,000  Level FlightAware
09:12AM 34.6990 29.8310 125° Southeast 506 582 39,000  Level FlightAware
09:13AM 34.6460 29.9270 124° Southeast 506 582 39,000  Level FlightAware
09:13AM 34.5800 30.0500 123° Southeast 501 577 39,000  Level FlightAware
09:14AM 34.5320 30.1510 120° Southeast 500 575 39,000  Level FlightAware
09:15AM 34.4570 30.3060 120° Southeast 501 577 39,000  Level FlightAware
09:16AM 34.4090 30.4030 121° Southeast 500 575 39,000  Level FlightAware
09:16AM 34.3670 30.4900 120° Southeast 499 574 39,000  Level FlightAware
09:17AM 34.3210 30.5830 121° Southeast 499 574 39,000  Level FlightAware
09:18AM 34.2670 30.6920 121° Southeast 493 567 39,000  Level FlightAware
09:18AM 34.2310 30.7650 121° Southeast 493 567 39,000  Level FlightAware
09:19AM 34.1790 30.8700 121° Southeast 491 565 39,000  Level FlightAware
09:20AM 34.1310 30.9670 121° Southeast 491 565 39,000  Level FlightAware
09:20AM 34.0770 31.0770 121° Southeast 489 563 39,000  Level FlightAware
09:21AM 34.0290 31.1730 121° Southeast 488 562 39,000  Level FlightAware
09:22AM 33.9810 31.2690 121° Southeast 487 560 39,000  Level FlightAware
09:22AM 33.9330 31.3640 121° Southeast 485 558 39,000  Level FlightAware
09:23AM 33.8930 31.4450 121° Southeast 484 557 39,000  Level FlightAware
09:24AM 33.8440 31.5410 122° Southeast 483 556 39,000  Level FlightAware
09:24AM 33.7910 31.6460 121° Southeast 483 556 39,000  Level FlightAware
09:25AM 33.7500 31.7260 122° Southeast 483 556 39,000  Level FlightAware
09:26AM 33.7030 31.8200 121° Southeast 483 556 39,000  Level FlightAware
09:26AM 33.6490 31.9250 122° Southeast 487 560 39,000  Level FlightAware
09:27AM 33.6010 32.0180 122° Southeast 487 560 39,000  Level FlightAware
09:28AM 33.5490 32.1190 122° Southeast 487 560 39,000  Level FlightAware
09:28AM 33.5080 32.1990 122° Southeast 487 560 39,000 -420 Level FlightAware
09:29AM 33.4530 32.3050 122° Southeast 487 560 38,500 -840 Descending FlightAware
09:30AM 33.4200 32.3700 121° Southeast 489 563 37,800 -360 Descending FlightAware
09:31AM 33.3290 32.5520 121° Southeast 489 563 37,800 -1,920 Level FlightAware
09:32AM 33.2320 32.7310 123° Southeast 475 547 33,400 -4,320 Descending FlightAware
09:33AM 33.1900 32.8100 122° Southeast 474 545 32,000 -2,340 Descending FlightAware
09:34AM 33.1370 32.9130 122° Southeast 464 534 30,300 -2,100 Descending FlightAware
09:34AM 33.0740 33.0220 125° Southeast 444 511 28,500 -1,560 Descending FlightAware
09:36AM 33.0040 33.1420 125° Southeast 431 496 27,300 -720 Descending FlightAware
09:36AM 32.9700 33.2020 124° Southeast 431 496 27,300 -2,220 Level FlightAware
09:37AM 32.9010 33.3200 125° Southeast 386 444 23,800 -2,880 Descending FlightAware
09:38AM 32.8550 33.3980 125° Southeast 401 461 22,600 -1,740 Descending FlightAware
09:38AM 32.8170 33.4650 124° Southeast 398 458 21,600 -1,680 Descending FlightAware
09:39AM 32.7660 33.5520 125° Southeast 380 437 20,200 -1,740 Descending FlightAware
09:40AM 32.7300 33.6120 125° Southeast 368 423 19,200 -1,620 Descending FlightAware
09:41AM 32.6840 33.6910 125° Southeast 371 427 18,000 -1,620 Descending FlightAware
09:41AM 32.6480 33.7530 125° Southeast 377 434 17,000 -1,620 Descending FlightAware
09:42AM 32.6090 33.8190 125° Southeast 367 422 16,000 -1,560 Descending FlightAware
09:43AM 32.5680 33.8880 125° Southeast 363 418 14,900 -1,620 Descending FlightAware
09:43AM 32.5290 33.9550 125° Southeast 356 410 13,800 -900 Descending FlightAware
09:44AM 32.4890 34.0250 124° Southeast 355 409 13,600 -1,500 Descending FlightAware
09:45AM 32.4430 34.0990 126° Southeast 339 390 11,600 -1,800 Descending FlightAware
09:46AM 32.4020 34.1660 126° Southeast 338 389 10,900 -480 Descending FlightAware
09:46AM 32.3640 34.2280 126° Southeast 338 389 10,900  Level FlightAware
09:47AM 32.3360 34.2740 126° Southeast 338 389 10,900  Level FlightAware
09:50AM 32.1338 34.6162 140° Southeast  Level FlightAware Approximate
09:51AM 32.0589 34.7611 115° Southeast  Level FlightAware Approximate
09:52AM 32.0000 34.8667 125° Southeast  Level FlightAware Approximate
09:53AM 32.0095 34.8769 125° Southeast  Level Estimated
09:54AM 32.0095 34.8769 125° Southeast  Level Estimated
09:55AM 32.0095 34.8769 125° Southeast  Level Estimated
09:56AM 32.0095 34.8769 125° Southeast  Level Estimated
09:57AM 32.0095 34.8769 125° Southeast  Level Estimated
09:58AM 32.0095 34.8769 125° Southeast  Level Estimated
09:59AM 32.0095 34.8769 125° Southeast  Level Estimated